Time;durP1;ratioP1;P1;durP2;ratioP2;P2;SDS_P1;SDS_P2;PMS_P1;PMS_P2;Temp;Humidity;BMP_temperature;BMP_pressure;BME280_temperature;BME280_humidity;BME280_pressure;Samples;Min_cycle;Max_cycle;Signal;HPM_P1;HPM_P2
2022/10/08 00:00:00;;;;;;;44.07;22.90;;;13.60;99.90;;;;;;5028483;28;20504;-77
2022/10/08 00:02:43;;;;;;;18.00;13.10;;;13.50;99.90;;;;;;5030094;28;20392;-77
2022/10/08 00:05:28;;;;;;;15.00;11.17;;;13.40;99.90;;;;;;5026467;28;20503;-81
2022/10/08 00:08:11;;;;;;;12.30;9.70;;;13.40;99.90;;;;;;5020148;28;20515;-81
2022/10/08 00:11:00;;;;;;;21.70;12.60;;;13.30;99.90;;;;;;5020748;28;20396;-81
2022/10/08 00:13:46;;;;;;;9.47;8.40;;;13.40;99.90;;;;;;5020295;28;20438;-80
2022/10/08 00:16:33;;;;;;;12.00;9.93;;;13.40;99.90;;;;;;5020412;28;20972;-80
2022/10/08 00:19:18;;;;;;;13.87;10.27;;;13.30;99.90;;;;;;5019790;28;20455;-80
2022/10/08 00:22:02;;;;;;;11.73;10.53;;;13.30;99.90;;;;;;5020494;28;20423;-80
2022/10/08 00:24:48;;;;;;;11.83;9.87;;;13.40;99.90;;;;;;5019744;28;20385;-80
2022/10/08 00:27:33;;;;;;;13.70;11.80;;;13.40;99.90;;;;;;5019815;28;20739;-80
2022/10/08 00:30:17;;;;;;;13.47;11.03;;;13.50;99.90;;;;;;5020627;28;20403;-80
2022/10/08 00:33:02;;;;;;;17.13;12.23;;;13.40;99.90;;;;;;5019420;28;20455;-79
2022/10/08 00:35:47;;;;;;;19.60;13.30;;;13.50;99.90;;;;;;5020337;28;20904;-80
2022/10/08 00:38:31;;;;;;;19.60;12.13;;;13.40;99.90;;;;;;5019765;28;20448;-80
2022/10/08 00:41:19;;;;;;;15.00;12.27;;;13.40;99.90;;;;;;5020427;28;20391;-81
2022/10/08 00:44:36;;;;;;;14.47;12.60;;;13.40;99.90;;;;;;5020200;28;20388;-80
2022/10/08 00:47:45;;;;;;;13.43;12.20;;;13.30;99.90;;;;;;5018444;28;20384;-81
2022/10/08 00:50:32;;;;;;;12.50;11.00;;;13.30;99.90;;;;;;5018454;28;20388;-81
2022/10/08 00:53:17;;;;;;;13.23;10.70;;;13.30;99.90;;;;;;5019500;28;20508;-81
2022/10/08 00:56:02;;;;;;;12.97;11.70;;;13.20;99.90;;;;;;5020289;28;21000;-80
2022/10/08 00:58:48;;;;;;;17.43;11.97;;;13.20;99.90;;;;;;5020459;28;20434;-81
2022/10/08 01:01:33;;;;;;;15.57;11.80;;;13.30;99.90;;;;;;5021968;28;20776;-81
2022/10/08 01:04:17;;;;;;;14.50;11.13;;;13.40;99.90;;;;;;5023151;28;20765;-80
2022/10/08 01:07:13;;;;;;;18.33;12.30;;;13.50;99.90;;;;;;5024712;28;20410;-81
2022/10/08 01:10:19;;;;;;;13.87;12.40;;;13.50;99.90;;;;;;5023068;28;20430;-79
2022/10/08 01:13:31;;;;;;;14.00;11.97;;;13.60;99.90;;;;;;5023883;28;20410;-80
2022/10/08 01:16:38;;;;;;;13.13;11.63;;;13.70;99.90;;;;;;5023112;28;20526;-80
2022/10/08 01:19:54;;;;;;;15.67;12.93;;;13.80;99.90;;;;;;5023205;28;20475;-80
2022/10/08 01:23:08;;;;;;;16.83;13.10;;;13.80;99.90;;;;;;5021966;28;20439;-80
2022/10/08 01:26:12;;;;;;;16.70;13.40;;;13.90;99.90;;;;;;5022256;28;20435;-80
2022/10/08 01:29:15;;;;;;;21.47;13.67;;;13.80;99.90;;;;;;5021784;28;20403;-80
2022/10/08 01:32:03;;;;;;;16.50;14.13;;;13.80;99.90;;;;;;5022815;28;20403;-81
2022/10/08 01:34:54;;;;;;;22.10;12.90;;;13.60;99.90;;;;;;5022181;28;20388;-81
2022/10/08 01:37:42;;;;;;;27.20;14.40;;;13.60;99.90;;;;;;5022408;28;20412;-81
2022/10/08 01:40:33;;;;;;;16.63;13.13;;;13.40;99.90;;;;;;5023073;28;20479;-81
2022/10/08 01:43:19;;;;;;;14.83;12.40;;;13.40;99.90;;;;;;5022794;28;20400;-81
2022/10/08 01:46:11;;;;;;;17.20;13.67;;;13.40;99.90;;;;;;5022440;28;20411;-81
2022/10/08 01:49:01;;;;;;;14.03;12.50;;;13.40;99.90;;;;;;5022673;28;20452;-81
2022/10/08 01:51:55;;;;;;;18.77;14.03;;;13.40;99.90;;;;;;5022407;28;20407;-81
2022/10/08 01:54:44;;;;;;;12.53;11.20;;;13.40;99.90;;;;;;5021486;28;20403;-81
2022/10/08 01:57:32;;;;;;;14.67;12.63;;;13.40;99.90;;;;;;5022706;28;20419;-81
2022/10/08 02:00:16;;;;;;;15.20;11.80;;;13.30;99.90;;;;;;5021939;28;20443;-80
2022/10/08 02:03:02;;;;;;;16.70;13.30;;;13.30;99.90;;;;;;5021343;28;20503;-80
2022/10/08 02:05:53;;;;;;;19.73;15.37;;;13.30;99.90;;;;;;5022924;28;20454;-81
2022/10/08 02:08:37;;;;;;;21.83;15.10;;;13.40;99.90;;;;;;5023017;28;20396;-80
2022/10/08 02:11:21;;;;;;;20.63;15.07;;;13.40;99.90;;;;;;5025350;28;20389;-79
2022/10/08 02:14:06;;;;;;;24.40;17.53;;;13.40;99.90;;;;;;5024379;28;20407;-80
2022/10/08 02:17:02;;;;;;;18.43;14.23;;;13.40;99.90;;;;;;5023256;28;20509;-81
2022/10/08 02:20:10;;;;;;;26.37;15.50;;;13.30;99.90;;;;;;5021640;28;20526;-80
2022/10/08 02:23:09;;;;;;;18.17;14.30;;;13.30;99.90;;;;;;5022347;28;20403;-80
2022/10/08 02:25:59;;;;;;;19.97;15.07;;;13.20;99.90;;;;;;5022584;28;20379;-80
2022/10/08 02:28:53;;;;;;;20.63;14.17;;;13.20;99.90;;;;;;5020607;28;20388;-81
2022/10/08 02:31:50;;;;;;;20.73;13.77;;;13.20;99.90;;;;;;5021033;28;20458;-79
2022/10/08 02:34:40;;;;;;;23.30;16.20;;;13.30;99.90;;;;;;5021250;28;20392;-81
2022/10/08 02:37:30;;;;;;;21.07;15.50;;;13.30;99.90;;;;;;5021857;28;20880;-79
2022/10/08 02:40:17;;;;;;;20.67;14.20;;;13.30;99.90;;;;;;5021405;28;20467;-80
2022/10/08 02:43:08;;;;;;;23.43;17.00;;;13.30;99.90;;;;;;5025747;28;20392;-77
2022/10/08 02:45:58;;;;;;;16.90;12.37;;;13.30;99.90;;;;;;5035158;28;20392;-77
2022/10/08 02:49:06;;;;;;;16.80;13.90;;;13.40;99.90;;;;;;5021586;28;20460;-81
2022/10/08 02:51:53;;;;;;;21.90;15.53;;;13.30;99.90;;;;;;5021281;28;20484;-81
2022/10/08 02:54:41;;;;;;;18.60;14.90;;;13.30;99.90;;;;;;5022007;28;20466;-80
2022/10/08 02:57:38;;;;;;;17.20;14.23;;;13.20;99.90;;;;;;5021289;28;20427;-80
2022/10/08 03:00:23;;;;;;;27.10;15.63;;;13.20;99.90;;;;;;5019413;28;20435;-79
2022/10/08 03:03:13;;;;;;;16.93;13.63;;;13.20;99.90;;;;;;5021126;28;20391;-80
2022/10/08 03:06:02;;;;;;;17.80;14.17;;;13.30;99.90;;;;;;5005987;28;20935;-80
2022/10/08 03:08:48;;;;;;;15.50;13.07;;;13.30;99.90;;;;;;5020427;28;20392;-80
2022/10/08 03:11:34;;;;;;;17.43;13.00;;;13.30;99.90;;;;;;5019624;28;20411;-81
2022/10/08 03:14:19;;;;;;;20.80;14.87;;;13.30;99.90;;;;;;5003234;28;20420;-80
2022/10/08 03:17:06;;;;;;;25.60;14.57;;;13.30;99.90;;;;;;5001236;28;20520;-81
2022/10/08 03:19:51;;;;;;;19.43;13.80;;;13.30;99.90;;;;;;5015210;28;20451;-81
2022/10/08 03:22:35;;;;;;;20.37;16.00;;;13.50;99.90;;;;;;5020600;28;20428;-80
2022/10/08 03:25:20;;;;;;;19.20;14.00;;;13.40;99.90;;;;;;5019669;28;20392;-79
2022/10/08 03:28:04;;;;;;;20.83;14.73;;;13.40;99.90;;;;;;5020241;28;20383;-81
2022/10/08 03:30:48;;;;;;;18.27;13.50;;;13.40;99.90;;;;;;5020703;28;20415;-81
2022/10/08 03:33:33;;;;;;;17.27;12.70;;;13.40;99.90;;;;;;5020087;28;20395;-81
2022/10/08 03:36:18;;;;;;;19.77;13.87;;;13.40;99.90;;;;;;5020534;28;20461;-81
2022/10/08 03:39:02;;;;;;;14.97;12.73;;;13.40;99.90;;;;;;5021178;28;20512;-81
2022/10/08 03:41:46;;;;;;;16.50;14.30;;;13.40;99.90;;;;;;5020606;28;20488;-81
2022/10/08 03:44:30;;;;;;;16.60;13.30;;;13.30;99.90;;;;;;5020932;28;20415;-80
2022/10/08 03:47:15;;;;;;;15.73;13.10;;;13.20;99.90;;;;;;5009519;28;20500;-80
2022/10/08 03:49:59;;;;;;;16.93;13.87;;;13.20;99.90;;;;;;5019983;28;20438;-80
2022/10/08 03:52:43;;;;;;;17.03;13.70;;;13.20;99.90;;;;;;5018425;28;20476;-81
2022/10/08 03:55:27;;;;;;;18.63;14.77;;;13.40;99.90;;;;;;5003456;28;21270;-80
2022/10/08 03:58:12;;;;;;;21.63;14.00;;;13.40;99.90;;;;;;5019190;28;20451;-81
2022/10/08 04:00:59;;;;;;;22.03;13.70;;;13.30;99.90;;;;;;5005393;28;20807;-80
2022/10/08 04:03:44;;;;;;;20.90;15.50;;;13.40;99.90;;;;;;5005486;28;20407;-80
2022/10/08 04:06:28;;;;;;;25.23;17.50;;;13.40;99.90;;;;;;5019976;28;20423;-80
2022/10/08 04:09:14;;;;;;;20.53;15.47;;;13.30;99.90;;;;;;5021543;28;20392;-81
2022/10/08 04:11:58;;;;;;;19.33;15.23;;;13.40;99.90;;;;;;5019844;28;20482;-80
2022/10/08 04:14:42;;;;;;;21.90;15.70;;;13.40;99.90;;;;;;5020744;28;20900;-78
2022/10/08 04:17:26;;;;;;;16.03;14.33;;;13.40;99.90;;;;;;5019322;28;20455;-79
2022/10/08 04:20:10;;;;;;;24.87;17.00;;;13.40;99.90;;;;;;5019916;28;20493;-80
2022/10/08 04:22:54;;;;;;;22.10;16.10;;;13.50;99.90;;;;;;5020447;28;20383;-81
2022/10/08 04:25:48;;;;;;;17.67;14.43;;;13.40;99.90;;;;;;5019946;28;20411;-80
2022/10/08 04:28:34;;;;;;;24.40;16.33;;;13.40;99.90;;;;;;5019603;28;20431;-80
2022/10/08 04:31:22;;;;;;;25.30;16.57;;;13.40;99.90;;;;;;5019670;28;20881;-81
2022/10/08 04:34:08;;;;;;;20.97;14.30;;;13.50;99.90;;;;;;5020058;28;20383;-81
2022/10/08 04:36:52;;;;;;;20.70;16.20;;;13.40;99.90;;;;;;5022149;28;20955;-81
2022/10/08 04:39:36;;;;;;;21.03;14.90;;;13.40;99.90;;;;;;5024127;28;20474;-80
2022/10/08 04:42:20;;;;;;;16.50;14.80;;;13.40;99.90;;;;;;5023841;28;20399;-81
2022/10/08 04:45:05;;;;;;;23.53;15.17;;;13.40;99.90;;;;;;5022563;28;20443;-81
2022/10/08 04:47:49;;;;;;;23.50;15.50;;;13.40;99.90;;;;;;5024110;28;20415;-81
2022/10/08 04:50:33;;;;;;;20.67;14.70;;;13.40;99.90;;;;;;5023802;28;20457;-81
2022/10/08 04:53:17;;;;;;;22.27;16.57;;;13.50;99.90;;;;;;5022854;28;20747;-81
2022/10/08 04:56:20;;;;;;;19.10;14.60;;;13.40;99.90;;;;;;5011221;28;20436;-80
2022/10/08 04:59:04;;;;;;;19.60;16.07;;;13.30;99.90;;;;;;5004268;28;20392;-80
2022/10/08 05:01:48;;;;;;;19.10;15.27;;;13.40;99.90;;;;;;5004542;28;20432;-81
2022/10/08 05:04:33;;;;;;;20.07;15.93;;;13.20;99.90;;;;;;5004230;28;20381;-80
2022/10/08 05:07:17;;;;;;;20.13;15.43;;;13.20;99.90;;;;;;5004295;28;20513;-81
2022/10/08 05:10:01;;;;;;;31.43;16.63;;;13.10;99.90;;;;;;5004534;28;20435;-81
2022/10/08 05:12:45;;;;;;;22.63;17.17;;;13.00;99.90;;;;;;5004576;28;20461;-80
2022/10/08 05:15:29;;;;;;;21.03;15.20;;;13.00;99.90;;;;;;5002900;28;20455;-80
2022/10/08 05:18:13;;;;;;;19.40;15.50;;;13.00;99.90;;;;;;5003605;28;20377;-81
2022/10/08 05:21:03;;;;;;;22.80;15.00;;;13.00;99.90;;;;;;5004254;28;20495;-80
2022/10/08 05:23:51;;;;;;;20.40;17.13;;;12.90;99.90;;;;;;5004008;28;20929;-80
2022/10/08 05:26:39;;;;;;;20.37;14.30;;;13.00;99.90;;;;;;5002475;28;20796;-81
2022/10/08 05:29:23;;;;;;;20.83;16.70;;;13.00;99.90;;;;;;5004045;28;20412;-80
2022/10/08 05:32:07;;;;;;;20.87;16.70;;;13.00;99.90;;;;;;5003760;28;20400;-81
2022/10/08 05:34:51;;;;;;;22.57;16.77;;;13.00;99.90;;;;;;5003058;28;20397;-81
2022/10/08 05:37:35;;;;;;;23.73;16.90;;;13.10;99.90;;;;;;5005001;28;20420;-81
2022/10/08 05:40:20;;;;;;;23.00;16.47;;;13.10;99.90;;;;;;5004509;28;20443;-80
2022/10/08 05:43:04;;;;;;;20.57;16.90;;;13.00;99.90;;;;;;5004086;28;20409;-81
2022/10/08 05:45:50;;;;;;;19.80;16.47;;;12.90;99.90;;;;;;5004098;28;20437;-81
2022/10/08 05:48:34;;;;;;;26.03;16.83;;;12.90;99.90;;;;;;5003864;28;20409;-80
2022/10/08 05:51:19;;;;;;;24.17;16.30;;;13.00;99.90;;;;;;5004115;28;20455;-80
2022/10/08 05:54:04;;;;;;;27.87;17.20;;;13.00;99.90;;;;;;5004885;28;20463;-81
2022/10/08 05:56:48;;;;;;;21.97;17.60;;;13.00;99.90;;;;;;5006297;28;20481;-80
2022/10/08 05:59:33;;;;;;;23.93;17.80;;;13.10;99.90;;;;;;5013455;28;20444;-78
2022/10/08 06:02:17;;;;;;;19.03;17.07;;;13.00;99.90;;;;;;5014150;28;20404;-78
2022/10/08 06:05:01;;;;;;;16.87;15.13;;;13.10;99.90;;;;;;5015030;28;20388;-78
2022/10/08 06:07:46;;;;;;;22.90;17.47;;;13.10;99.90;;;;;;5014806;28;20420;-78
2022/10/08 06:10:32;;;;;;;25.63;16.97;;;13.00;99.90;;;;;;5013656;28;20447;-78
2022/10/08 06:13:17;;;;;;;19.93;16.33;;;13.10;99.90;;;;;;5011024;28;20974;-80
2022/10/08 06:16:05;;;;;;;26.20;18.20;;;13.00;99.90;;;;;;5003435;28;20467;-81
2022/10/08 06:18:50;;;;;;;20.17;16.47;;;13.10;99.90;;;;;;5003333;28;20452;-81
2022/10/08 06:21:35;;;;;;;22.37;16.97;;;13.30;99.90;;;;;;5003606;28;20484;-80
2022/10/08 06:24:20;;;;;;;20.53;15.50;;;13.20;99.90;;;;;;5002643;28;20409;-81
2022/10/08 06:27:05;;;;;;;28.40;15.97;;;13.20;99.90;;;;;;5003076;28;20396;-81
2022/10/08 06:29:50;;;;;;;18.70;14.67;;;13.20;99.90;;;;;;5005272;28;20946;-81
2022/10/08 06:32:35;;;;;;;22.87;16.10;;;13.20;99.90;;;;;;5022575;28;20387;-81
2022/10/08 06:35:19;;;;;;;20.93;15.33;;;13.20;99.90;;;;;;5022454;28;20731;-80
2022/10/08 06:38:04;;;;;;;22.00;15.60;;;13.10;99.90;;;;;;5021714;28;20450;-80
2022/10/08 06:40:48;;;;;;;30.57;16.80;;;13.10;99.90;;;;;;5022097;28;20470;-81
2022/10/08 06:43:32;;;;;;;22.33;16.27;;;13.10;99.90;;;;;;5022417;28;20387;-81
2022/10/08 06:46:18;;;;;;;26.73;15.90;;;13.10;99.90;;;;;;5022432;28;20435;-81
2022/10/08 06:49:04;;;;;;;22.87;16.33;;;13.10;99.90;;;;;;5022796;28;20384;-81
2022/10/08 06:51:49;;;;;;;22.53;16.03;;;13.10;99.90;;;;;;5021154;28;20383;-81
2022/10/08 06:54:33;;;;;;;23.60;17.30;;;13.10;99.90;;;;;;5022407;28;20744;-80
2022/10/08 06:57:17;;;;;;;27.87;17.10;;;13.20;99.90;;;;;;5021592;28;20522;-82
2022/10/08 07:00:01;;;;;;;26.67;19.50;;;13.30;99.90;;;;;;5020845;28;20539;-81
2022/10/08 07:02:45;;;;;;;18.07;15.90;;;13.20;99.90;;;;;;5021161;28;20736;-80
2022/10/08 07:05:31;;;;;;;22.87;18.07;;;13.20;99.90;;;;;;5022690;28;20443;-80
2022/10/08 07:08:16;;;;;;;24.73;18.27;;;13.40;99.90;;;;;;5020363;28;20411;-78
2022/10/08 07:11:11;;;;;;;22.10;15.97;;;13.50;99.90;;;;;;5011607;28;20401;-77
2022/10/08 07:13:56;;;;;;;18.80;15.40;;;13.50;99.90;;;;;;5011311;28;20448;-78
2022/10/08 07:16:40;;;;;;;19.40;17.30;;;13.60;99.90;;;;;;5011167;28;20452;-78
2022/10/08 07:19:24;;;;;;;26.57;17.67;;;13.80;99.90;;;;;;5003495;28;20452;-81
2022/10/08 07:22:08;;;;;;;21.60;16.53;;;13.90;99.90;;;;;;5005824;28;20415;-81
2022/10/08 07:24:52;;;;;;;20.00;17.27;;;14.00;99.90;;;;;;5020674;28;20391;-81
2022/10/08 07:27:36;;;;;;;20.20;16.07;;;14.00;99.90;;;;;;5021165;28;20388;-81
2022/10/08 07:30:20;;;;;;;17.57;15.60;;;14.10;99.90;;;;;;5021027;28;20388;-81
2022/10/08 07:33:05;;;;;;;21.70;14.80;;;14.20;99.90;;;;;;5020730;28;20460;-79
2022/10/08 07:35:49;;;;;;;19.23;15.07;;;14.30;99.90;;;;;;5019832;28;20391;-82
2022/10/08 07:38:34;;;;;;;20.50;15.40;;;14.40;99.90;;;;;;5020585;28;20399;-81
2022/10/08 07:41:18;;;;;;;18.00;15.23;;;14.40;99.90;;;;;;4998083;28;20825;-81
2022/10/08 07:44:04;;;;;;;18.23;15.07;;;14.40;99.90;;;;;;4965067;28;20445;-80
2022/10/08 07:46:49;;;;;;;21.60;14.20;;;14.50;99.90;;;;;;4979612;28;20469;-80
2022/10/08 07:49:34;;;;;;;17.87;13.37;;;14.60;99.90;;;;;;4979451;28;20780;-79
2022/10/08 07:52:18;;;;;;;21.90;16.80;;;14.70;99.90;;;;;;4979139;28;20475;-81
2022/10/08 07:55:03;;;;;;;14.27;12.83;;;14.70;99.90;;;;;;4978799;28;20401;-80
2022/10/08 07:57:47;;;;;;;18.30;14.90;;;15.00;99.90;;;;;;4978290;28;20449;-80
2022/10/08 08:00:31;;;;;;;18.60;13.13;;;15.10;99.90;;;;;;4977839;28;21067;-81
2022/10/08 08:03:16;;;;;;;27.07;14.60;;;14.90;99.90;;;;;;4978990;28;20560;-81
2022/10/08 08:06:03;;;;;;;17.67;13.40;;;15.10;99.90;;;;;;4964813;28;20779;-81
2022/10/08 08:08:47;;;;;;;17.87;13.87;;;15.10;99.90;;;;;;4978991;28;20397;-80
2022/10/08 08:11:32;;;;;;;15.60;13.40;;;15.50;99.90;;;;;;4980200;28;20397;-81
2022/10/08 08:14:18;;;;;;;17.43;13.40;;;15.60;99.90;;;;;;4996048;28;20411;-79
2022/10/08 08:17:03;;;;;;;15.90;9.80;;;15.90;99.90;;;;;;5015517;28;20475;-81
2022/10/08 08:19:47;;;;;;;16.13;9.83;;;15.70;99.90;;;;;;5022693;28;20951;-81
2022/10/08 08:22:31;;;;;;;10.47;7.93;;;15.50;99.90;;;;;;5023962;28;20447;-81
2022/10/08 08:25:15;;;;;;;13.43;9.00;;;15.60;99.90;;;;;;5024360;28;20411;-81
2022/10/08 08:27:59;;;;;;;10.40;8.20;;;15.70;99.90;;;;;;5024352;28;20414;-81
2022/10/08 08:30:44;;;;;;;8.83;6.47;;;16.10;99.90;;;;;;5024146;28;20391;-81
2022/10/08 08:33:28;;;;;;;6.23;5.73;;;16.30;99.90;;;;;;5025218;28;20876;-79
2022/10/08 08:36:12;;;;;;;7.00;5.87;;;16.40;99.90;;;;;;5022646;28;20947;-82
2022/10/08 08:38:57;;;;;;;12.27;5.50;;;16.40;99.90;;;;;;5024379;28;20419;-81
2022/10/08 08:42:19;;;;;;;4.70;4.07;;;16.60;99.90;;;;;;5018730;28;20620;-81
2022/10/08 08:45:29;;;;;;;6.60;5.90;;;17.60;99.90;;;;;;5021206;28;20404;-78
2022/10/08 08:48:20;;;;;;;4.30;3.80;;;17.70;99.90;;;;;;5005266;28;20443;-81
2022/10/08 08:51:05;;;;;;;4.77;3.90;;;17.50;99.90;;;;;;5001100;28;20439;-81
2022/10/08 08:53:49;;;;;;;6.60;4.00;;;17.30;99.90;;;;;;5001220;28;20456;-82
2022/10/08 08:56:34;;;;;;;4.73;3.60;;;17.50;99.90;;;;;;4986508;28;20953;-81
2022/10/08 08:59:27;;;;;;;11.97;4.00;;;17.20;99.90;;;;;;5000473;28;20384;-82
2022/10/08 09:02:23;;;;;;;7.17;4.00;;;17.20;99.90;;;;;;5001834;28;20452;-81
2022/10/08 09:05:12;;;;;;;4.70;2.87;;;17.20;99.90;;;;;;4988716;28;20464;-79
2022/10/08 09:08:04;;;;;;;14.50;4.00;;;17.10;99.90;;;;;;4980560;28;20420;-78
2022/10/08 09:10:56;;;;;;;9.90;3.70;;;17.00;99.90;;;;;;5001227;28;20400;-81
2022/10/08 09:13:56;;;;;;;13.03;4.47;;;17.00;99.90;;;;;;4988999;28;20436;-79
2022/10/08 09:16:40;;;;;;;7.10;3.00;;;17.00;99.90;;;;;;4986597;28;20432;-82
2022/10/08 09:19:25;;;;;;;3.60;3.20;;;17.30;99.90;;;;;;4999658;28;20476;-81
2022/10/08 09:22:22;;;;;;;7.47;3.63;;;17.60;99.90;;;;;;4999275;28;20400;-79
2022/10/08 09:25:15;;;;;;;9.53;3.70;;;18.30;99.90;;;;;;4999968;28;20501;-81
2022/10/08 09:28:02;;;;;;;3.07;2.37;;;19.40;99.90;;;;;;4985993;28;20401;-81
2022/10/08 09:30:47;;;;;;;4.40;3.00;;;20.00;99.90;;;;;;5000920;28;20392;-81
2022/10/08 09:33:31;;;;;;;5.23;3.13;;;19.50;99.90;;;;;;4986927;28;20401;-81
2022/10/08 09:36:30;;;;;;;5.03;3.30;;;19.90;99.90;;;;;;4993828;28;20468;-79
2022/10/08 09:39:18;;;;;;;6.27;2.43;;;20.60;99.90;;;;;;5002959;28;20802;-81
2022/10/08 09:42:16;;;;;;;3.47;2.30;;;20.80;99.90;;;;;;5000652;28;20429;-82
2022/10/08 09:45:02;;;;;;;3.20;2.90;;;20.80;99.90;;;;;;5007087;28;20460;-81
2022/10/08 09:48:19;;;;;;;6.37;2.90;;;21.50;99.90;;;;;;5022630;28;20412;-82
2022/10/08 09:51:14;;;;;;;4.60;2.03;;;21.00;99.90;;;;;;5022097;28;20395;-80
2022/10/08 09:54:12;;;;;;;10.37;2.77;;;20.10;99.90;;;;;;5022263;28;20492;-81
2022/10/08 09:56:58;;;;;;;6.20;2.30;;;20.20;99.90;;;;;;5021405;28;20463;-81
2022/10/08 09:59:55;;;;;;;7.10;4.17;;;20.50;99.90;;;;;;5007986;28;20451;-81
2022/10/08 10:02:39;;;;;;;3.63;2.20;;;20.60;99.90;;;;;;5022854;28;20448;-81
2022/10/08 10:05:27;;;;;;;4.30;2.00;;;20.80;99.90;;;;;;5022145;28;20380;-80
2022/10/08 10:08:49;;;;;;;5.10;2.80;;;20.90;99.90;;;;;;5019762;28;20476;-79
2022/10/08 10:11:40;;;;;;;7.70;2.53;;;21.10;99.90;;;;;;5019677;28;21027;-81
2022/10/08 10:14:34;;;;;;;3.30;2.30;;;20.70;99.90;;;;;;5006158;28;20403;-81
2022/10/08 10:17:34;;;;;;;3.60;2.50;;;20.60;99.90;;;;;;5020404;28;20420;-79
2022/10/08 10:20:33;;;;;;;2.83;2.17;;;21.40;99.90;;;;;;5021744;28;20529;-80
2022/10/08 10:23:22;;;;;;;5.13;2.40;;;21.70;99.90;;;;;;5018646;28;20713;-82
2022/10/08 10:26:15;;;;;;;4.10;2.10;;;21.90;99.60;;;;;;5018362;28;20467;-82
2022/10/08 10:29:08;;;;;;;4.77;2.03;;;21.80;99.90;;;;;;5003787;28;20383;-82
2022/10/08 10:32:03;;;;;;;3.37;2.30;;;21.90;99.90;;;;;;5018718;28;20379;-82
2022/10/08 10:34:57;;;;;;;5.27;2.00;;;21.70;97.20;;;;;;5017952;28;20956;-81
2022/10/08 10:38:00;;;;;;;3.87;2.20;;;21.70;99.40;;;;;;5016772;28;20468;-81
2022/10/08 10:40:50;;;;;;;2.80;1.90;;;20.70;99.00;;;;;;5018644;28;20558;-82
2022/10/08 10:44:02;;;;;;;4.40;2.10;;;22.20;99.70;;;;;;5019300;28;20388;-82
2022/10/08 10:46:50;;;;;;;4.00;1.93;;;22.80;95.80;;;;;;5017328;28;20474;-81
2022/10/08 10:49:39;;;;;;;3.87;2.10;;;21.70;95.60;;;;;;5017895;28;20447;-83
2022/10/08 10:52:39;;;;;;;3.83;2.03;;;22.60;96.80;;;;;;5018653;28;20392;-82
2022/10/08 10:55:37;;;;;;;5.33;2.20;;;22.20;95.00;;;;;;5019249;28;20896;-82
2022/10/08 10:58:37;;;;;;;2.80;1.73;;;22.10;96.20;;;;;;5017833;28;20698;-81
2022/10/08 11:01:38;;;;;;;2.43;2.23;;;22.10;96.00;;;;;;5016745;28;20627;-81
2022/10/08 11:04:51;;;;;;;3.20;1.90;;;21.90;96.10;;;;;;5018006;28;20387;-82
2022/10/08 11:08:01;;;;;;;2.07;1.87;;;22.20;96.10;;;;;;5006361;28;20459;-82
2022/10/08 11:11:15;;;;;;;3.50;1.83;;;22.60;94.70;;;;;;5008782;28;20898;-78
2022/10/08 11:14:31;;;;;;;2.40;1.50;;;22.70;93.70;;;;;;5017878;28;20411;-79
2022/10/08 11:17:41;;;;;;;1.90;1.50;;;22.80;92.60;;;;;;5016043;28;20388;-80
2022/10/08 11:20:38;;;;;;;1.70;1.57;;;22.40;92.30;;;;;;5015230;28;20439;-82
2022/10/08 11:23:48;;;;;;;2.70;1.80;;;21.90;92.70;;;;;;5017405;28;20406;-82
2022/10/08 11:26:49;;;;;;;4.60;2.63;;;21.50;93.70;;;;;;5016757;28;20422;-81
2022/10/08 11:29:47;;;;;;;3.57;2.00;;;22.10;94.90;;;;;;5016333;28;20432;-80
2022/10/08 11:32:32;;;;;;;1.50;1.40;;;22.10;94.00;;;;;;5016372;28;20480;-82
2022/10/08 11:35:39;;;;;;;3.10;1.80;;;21.80;94.10;;;;;;5017583;28;20904;-80
2022/10/08 11:38:37;;;;;;;8.70;2.03;;;21.60;93.70;;;;;;5016826;28;20962;-81
2022/10/08 11:41:30;;;;;;;1.87;1.70;;;22.80;94.10;;;;;;5016976;28;20475;-82
2022/10/08 11:44:16;;;;;;;6.93;1.80;;;23.10;92.70;;;;;;5017465;28;20427;-80
2022/10/08 11:47:40;;;;;;;1.70;1.50;;;22.80;91.50;;;;;;5016815;28;20403;-79
2022/10/08 11:50:32;;;;;;;4.03;1.93;;;22.10;93.40;;;;;;5016782;28;20403;-81
2022/10/08 11:53:21;;;;;;;2.90;1.50;;;21.30;94.10;;;;;;5018129;28;20395;-80
2022/10/08 11:56:09;;;;;;;8.20;2.47;;;20.60;95.40;;;;;;5016858;28;20450;-81
2022/10/08 11:58:56;;;;;;;4.90;2.63;;;20.10;96.90;;;;;;5017037;28;20404;-82
2022/10/08 12:01:58;;;;;;;2.07;1.83;;;19.50;98.50;;;;;;5016327;28;20729;-81
2022/10/08 12:04:45;;;;;;;3.20;1.70;;;19.30;99.90;;;;;;5016760;28;20372;-82
2022/10/08 12:07:33;;;;;;;2.20;1.97;;;18.90;99.90;;;;;;5017629;28;20391;-79
2022/10/08 12:10:36;;;;;;;2.43;2.20;;;18.80;99.90;;;;;;5017121;28;20387;-80
2022/10/08 12:13:25;;;;;;;2.60;1.90;;;18.80;99.90;;;;;;5018064;28;20947;-81
2022/10/08 12:16:10;;;;;;;6.13;2.00;;;18.80;99.90;;;;;;5016196;28;20516;-81
2022/10/08 12:18:53;;;;;;;2.87;1.97;;;18.70;99.90;;;;;;5014899;28;20463;-81
2022/10/08 12:21:47;;;;;;;3.63;1.93;;;18.90;99.90;;;;;;5016418;28;20523;-81
2022/10/08 12:24:55;;;;;;;3.33;1.80;;;19.00;99.90;;;;;;5015604;28;20498;-78
2022/10/08 12:27:40;;;;;;;2.43;1.60;;;18.50;99.90;;;;;;5003931;28;20391;-81
2022/10/08 12:30:52;;;;;;;6.73;1.80;;;18.60;99.90;;;;;;5014961;28;20789;-80
2022/10/08 12:33:37;;;;;;;3.13;1.90;;;18.80;99.90;;;;;;5016620;28;20427;-82
2022/10/08 12:37:00;;;;;;;5.10;1.60;;;18.60;99.90;;;;;;5016468;28;20391;-81
2022/10/08 12:39:45;;;;;;;2.13;1.60;;;18.40;99.90;;;;;;5016448;28;20770;-81
2022/10/08 12:42:35;;;;;;;3.73;2.03;;;18.30;99.90;;;;;;5016354;28;20473;-81
2022/10/08 12:45:27;;;;;;;1.73;1.63;;;18.20;99.90;;;;;;5015664;28;20903;-81
2022/10/08 12:48:37;;;;;;;4.87;1.87;;;18.10;99.90;;;;;;5015153;28;20395;-81
2022/10/08 12:51:40;;;;;;;4.93;2.00;;;17.90;99.90;;;;;;5016033;28;20392;-81
2022/10/08 12:54:27;;;;;;;2.40;1.53;;;18.00;99.90;;;;;;5016973;28;20395;-81
2022/10/08 12:57:17;;;;;;;4.60;1.60;;;18.00;99.90;;;;;;5018152;28;20478;-82
2022/10/08 13:00:10;;;;;;;1.87;1.57;;;18.00;99.90;;;;;;5020478;28;20807;-81
2022/10/08 13:03:05;;;;;;;3.00;1.60;;;18.10;99.90;;;;;;5018979;28;20391;-81
2022/10/08 13:05:52;;;;;;;1.93;1.70;;;18.20;99.90;;;;;;5019778;28;20745;-81
2022/10/08 13:08:38;;;;;;;2.43;2.03;;;18.30;99.90;;;;;;5019974;28;20398;-81
2022/10/08 13:11:23;;;;;;;8.00;2.83;;;18.30;99.90;;;;;;5009336;28;20427;-81
2022/10/08 13:14:22;;;;;;;2.10;1.70;;;18.40;99.90;;;;;;5016772;28;20466;-82
2022/10/08 13:17:28;;;;;;;5.23;1.60;;;18.70;99.90;;;;;;5019793;28;20402;-80
2022/10/08 13:20:18;;;;;;;2.60;1.33;;;18.80;99.90;;;;;;5019489;28;20447;-81
2022/10/08 13:23:23;;;;;;;2.10;1.60;;;18.70;99.90;;;;;;5019897;28;20883;-81
2022/10/08 13:26:36;;;;;;;2.23;1.50;;;18.80;99.90;;;;;;5018164;28;20399;-81
2022/10/08 13:29:31;;;;;;;1.70;1.60;;;19.40;99.90;;;;;;5018121;28;20391;-81
2022/10/08 13:32:20;;;;;;;4.50;1.87;;;20.90;99.90;;;;;;5017163;28;20435;-83
2022/10/08 13:35:24;;;;;;;1.50;1.40;;;20.80;99.90;;;;;;4996270;28;20408;-80
2022/10/08 13:38:19;;;;;;;2.80;1.50;;;20.40;99.90;;;;;;4984427;28;20413;-80
2022/10/08 13:41:05;;;;;;;3.53;2.13;;;20.00;99.90;;;;;;4997813;28;20448;-80
2022/10/08 13:43:49;;;;;;;4.60;1.70;;;20.20;99.90;;;;;;4976611;28;20542;-82
2022/10/08 13:46:34;;;;;;;6.53;2.10;;;21.70;99.90;;;;;;4975626;28;20522;-81
2022/10/08 13:49:25;;;;;;;5.80;1.33;;;22.10;99.90;;;;;;4963278;28;20581;-82
2022/10/08 13:52:16;;;;;;;1.53;1.27;;;21.30;99.50;;;;;;4976548;28;20502;-81
2022/10/08 13:55:04;;;;;;;8.87;1.73;;;20.30;99.90;;;;;;4949002;28;20421;-81
2022/10/08 13:57:48;;;;;;;5.43;1.77;;;20.10;99.90;;;;;;4975586;28;20429;-81
2022/10/08 14:00:36;;;;;;;2.83;1.70;;;19.70;99.90;;;;;;4962473;28;20627;-81
2022/10/08 14:03:20;;;;;;;2.50;1.80;;;19.00;99.90;;;;;;4976545;28;20783;-80
2022/10/08 14:06:05;;;;;;;1.80;1.43;;;19.10;99.90;;;;;;4973044;28;20463;-81
2022/10/08 14:08:50;;;;;;;3.43;1.67;;;19.70;99.90;;;;;;4995805;28;20882;-82
2022/10/08 14:11:34;;;;;;;1.87;1.50;;;19.50;99.90;;;;;;4997671;28;20396;-82
2022/10/08 14:14:38;;;;;;;4.60;2.77;;;19.00;99.90;;;;;;5005552;28;20407;-82
2022/10/08 14:17:22;;;;;;;3.50;2.10;;;18.70;99.90;;;;;;4983042;28;20463;-81
2022/10/08 14:20:07;;;;;;;5.43;1.57;;;18.60;99.90;;;;;;4998188;28;20571;-81
2022/10/08 14:23:12;;;;;;;2.70;1.30;;;18.30;99.90;;;;;;5006427;28;20392;-79
2022/10/08 14:25:57;;;;;;;1.80;1.50;;;18.20;99.90;;;;;;4957041;29;20439;-81
2022/10/08 14:28:41;;;;;;;3.83;2.67;;;18.00;99.90;;;;;;4939253;29;20436;-81
2022/10/08 14:31:27;;;;;;;8.73;1.70;;;17.90;99.90;;;;;;4925465;29;20491;-81